AMAT2: Canadian River Nr Amarillo, TX

                                SHEF ID:       AMAT2     Canadian Rv nr Amarillo, TX
STATION TYPE:
Regulating: Stage = 13.00, Flow = 11996

PRECIP STAGE RIV-FLOW WTR-TEMP CONDUCT BAT-LOAD
in ft cfs F umho/cm volt
Ccp-Rev Ccp-Rev Ccp-Rev Ccp-Rev Ccp-Rev Ccp-Rev
(America/Chicago)
07/19 00:00 ---- 2.43 329 79.52 1 12.63
07/19 01:00 ---- 2.37 306 79.09 1 12.61
07/19 02:00 ---- 2.32 288 78.67 1 12.60
07/19 03:00 ---- 2.31 284 78.21 1 12.60
07/19 04:00 ---- 2.31 284 77.50 1 12.58
07/19 05:00 ---- 2.34 295 77.02 1 12.57
07/19 06:00 ---- 2.34 295 76.64 1 12.55
07/19 07:00 ---- 2.34 295 76.41 1 12.57
07/19 08:00 ---- 2.33 291 76.24 1 12.84
07/19 09:00 ---- 2.32 288 76.15 1 13.26
07/19 10:00 ---- 2.30 281 76.10 1 13.68
07/19 11:00 ---- 2.28 274 76.17 1 13.64
07/19 12:00 ---- 2.24 260 76.42 1 13.59
07/19 13:00 ---- 2.20 247 76.86 1 13.54
07/19 14:00 ---- 2.15 232 77.27 1 13.51
07/19 15:00 ---- 2.11 221 77.52 1 13.47
07/19 16:00 ---- 2.05 204 77.77 1 13.41
07/19 17:00 ---- 2.05 204 78.06 1 13.40
07/19 18:00 ---- 2.03 199 78.40 1 13.17
07/19 19:00 ---- 2.05 204 78.76 1 12.97
07/19 20:00 ---- 2.06 207 79.07 1 12.77
07/19 21:00 ---- 2.06 207 79.30 1 12.63
07/19 22:00 ---- 2.07 210 79.43 1 12.63
07/19 23:00 ---- 2.14 229 79.48 1 12.63
Data processed at Sun 20Jul2025 04:15 GMT

Parsing this webpage?

Checkout our new Data API! CWMSDataAPI (CDA)

Timeseries IDs (TSIDs)

TSIDs used from left to right in the data table
AMAR.Precip-Inc.Total.1Hour.1Hour.Ccp-Rev
AMAR.Stage.Inst.1Hour.0.Ccp-Rev
AMAR.Flow.Inst.1Hour.0.Ccp-Rev
AMAR.Temp-Water.Inst.1Hour.0.Ccp-Rev
AMAR.Cond-Water.Inst.1Hour.0.Ccp-Rev
AMAR.Volt-Battery Load.Inst.1Hour.0.Ccp-Rev

                            

All information presented herein is the property of the government of the United States of America and may be revised or deleted at any time without prior notice. Dissemination of this information without the expressed written consent of the Public Affairs Office, Tulsa District U.S. Army Corps of Engineers is strictly prohibited. These data are gathered electronically and, as presented, have NOT undergone any form of quality control. These data are NOT guaranteed to be valid or correct.